sensor_id;sensor_type;location;lat;lon;timestamp;P1;durP1;ratioP1;P2;durP2;ratioP2
27161;SDS011;54464;50.558;9.704;2023-10-13T00:01:21;25.30;;;17.83;;
27161;SDS011;54464;50.558;9.704;2023-10-13T00:03:48;25.47;;;16.93;;
27161;SDS011;54464;50.558;9.704;2023-10-13T00:06:13;21.97;;;16.33;;
27161;SDS011;54464;50.558;9.704;2023-10-13T00:08:40;20.87;;;16.00;;
27161;SDS011;54464;50.558;9.704;2023-10-13T00:11:06;21.10;;;15.70;;
27161;SDS011;54464;50.558;9.704;2023-10-13T00:13:36;21.10;;;15.73;;
27161;SDS011;54464;50.558;9.704;2023-10-13T00:16:22;20.77;;;15.63;;
27161;SDS011;54464;50.558;9.704;2023-10-13T00:18:52;20.73;;;15.53;;
27161;SDS011;54464;50.558;9.704;2023-10-13T00:21:24;22.00;;;14.47;;
27161;SDS011;54464;50.558;9.704;2023-10-13T00:24:00;20.50;;;14.63;;
27161;SDS011;54464;50.558;9.704;2023-10-13T00:26:30;21.53;;;15.10;;
27161;SDS011;54464;50.558;9.704;2023-10-13T00:29:01;26.57;;;14.83;;
27161;SDS011;54464;50.558;9.704;2023-10-13T00:31:36;20.40;;;14.50;;
27161;SDS011;54464;50.558;9.704;2023-10-13T00:34:03;21.90;;;15.77;;
27161;SDS011;54464;50.558;9.704;2023-10-13T00:36:43;21.13;;;15.40;;
27161;SDS011;54464;50.558;9.704;2023-10-13T00:39:27;20.97;;;15.03;;
27161;SDS011;54464;50.558;9.704;2023-10-13T00:41:54;22.37;;;16.07;;
27161;SDS011;54464;50.558;9.704;2023-10-13T00:44:23;22.93;;;16.03;;
27161;SDS011;54464;50.558;9.704;2023-10-13T00:47:09;23.87;;;14.20;;
27161;SDS011;54464;50.558;9.704;2023-10-13T00:49:41;24.83;;;14.90;;
27161;SDS011;54464;50.558;9.704;2023-10-13T00:52:12;18.40;;;13.47;;
27161;SDS011;54464;50.558;9.704;2023-10-13T00:54:40;19.90;;;13.60;;
27161;SDS011;54464;50.558;9.704;2023-10-13T00:57:12;17.87;;;12.87;;
27161;SDS011;54464;50.558;9.704;2023-10-13T00:59:59;18.37;;;12.83;;
27161;SDS011;54464;50.558;9.704;2023-10-13T01:02:37;19.23;;;11.90;;
27161;SDS011;54464;50.558;9.704;2023-10-13T01:05:06;16.03;;;11.80;;
27161;SDS011;54464;50.558;9.704;2023-10-13T01:07:36;20.30;;;12.73;;
27161;SDS011;54464;50.558;9.704;2023-10-13T01:10:02;18.07;;;12.40;;
27161;SDS011;54464;50.558;9.704;2023-10-13T01:12:29;17.23;;;11.77;;
27161;SDS011;54464;50.558;9.704;2023-10-13T01:14:56;17.03;;;11.93;;
27161;SDS011;54464;50.558;9.704;2023-10-13T01:17:22;17.67;;;12.70;;
27161;SDS011;54464;50.558;9.704;2023-10-13T01:19:48;19.40;;;12.00;;
27161;SDS011;54464;50.558;9.704;2023-10-13T01:22:14;20.20;;;12.47;;
27161;SDS011;54464;50.558;9.704;2023-10-13T01:24:40;17.70;;;12.43;;
27161;SDS011;54464;50.558;9.704;2023-10-13T01:27:06;17.73;;;12.40;;
27161;SDS011;54464;50.558;9.704;2023-10-13T01:29:45;18.47;;;13.00;;
27161;SDS011;54464;50.558;9.704;2023-10-13T01:32:23;18.57;;;12.23;;
27161;SDS011;54464;50.558;9.704;2023-10-13T01:34:49;15.43;;;12.17;;
27161;SDS011;54464;50.558;9.704;2023-10-13T01:37:20;19.93;;;11.93;;
27161;SDS011;54464;50.558;9.704;2023-10-13T01:39:47;16.67;;;12.00;;
27161;SDS011;54464;50.558;9.704;2023-10-13T01:42:14;16.73;;;11.97;;
27161;SDS011;54464;50.558;9.704;2023-10-13T01:44:44;19.90;;;12.73;;
27161;SDS011;54464;50.558;9.704;2023-10-13T01:47:10;19.30;;;12.27;;
27161;SDS011;54464;50.558;9.704;2023-10-13T01:49:37;19.80;;;12.13;;
27161;SDS011;54464;50.558;9.704;2023-10-13T01:52:13;16.50;;;11.13;;
27161;SDS011;54464;50.558;9.704;2023-10-13T01:54:42;18.10;;;11.30;;
27161;SDS011;54464;50.558;9.704;2023-10-13T01:57:11;14.00;;;10.63;;
27161;SDS011;54464;50.558;9.704;2023-10-13T01:59:44;18.27;;;11.47;;
27161;SDS011;54464;50.558;9.704;2023-10-13T02:02:13;17.07;;;11.20;;
27161;SDS011;54464;50.558;9.704;2023-10-13T02:04:39;14.80;;;9.90;;
27161;SDS011;54464;50.558;9.704;2023-10-13T02:07:20;13.93;;;9.83;;
27161;SDS011;54464;50.558;9.704;2023-10-13T02:09:45;14.40;;;10.30;;
27161;SDS011;54464;50.558;9.704;2023-10-13T02:12:12;17.43;;;11.20;;
27161;SDS011;54464;50.558;9.704;2023-10-13T02:14:40;13.50;;;10.37;;
27161;SDS011;54464;50.558;9.704;2023-10-13T02:17:07;14.17;;;9.53;;
27161;SDS011;54464;50.558;9.704;2023-10-13T02:19:39;16.20;;;10.40;;
27161;SDS011;54464;50.558;9.704;2023-10-13T02:22:09;15.97;;;11.53;;
27161;SDS011;54464;50.558;9.704;2023-10-13T02:24:35;15.17;;;10.90;;
27161;SDS011;54464;50.558;9.704;2023-10-13T02:27:05;12.23;;;10.53;;
27161;SDS011;54464;50.558;9.704;2023-10-13T02:29:40;12.77;;;10.50;;
27161;SDS011;54464;50.558;9.704;2023-10-13T02:32:06;16.07;;;10.30;;
27161;SDS011;54464;50.558;9.704;2023-10-13T02:34:43;14.80;;;10.03;;
27161;SDS011;54464;50.558;9.704;2023-10-13T02:37:12;14.20;;;9.93;;
27161;SDS011;54464;50.558;9.704;2023-10-13T02:39:38;16.67;;;10.30;;
27161;SDS011;54464;50.558;9.704;2023-10-13T02:42:08;13.57;;;10.30;;
27161;SDS011;54464;50.558;9.704;2023-10-13T02:44:41;14.30;;;10.17;;
27161;SDS011;54464;50.558;9.704;2023-10-13T02:47:11;15.40;;;10.60;;
27161;SDS011;54464;50.558;9.704;2023-10-13T02:49:40;14.53;;;9.57;;
27161;SDS011;54464;50.558;9.704;2023-10-13T02:52:11;13.73;;;9.27;;
27161;SDS011;54464;50.558;9.704;2023-10-13T02:54:37;14.10;;;9.13;;
27161;SDS011;54464;50.558;9.704;2023-10-13T02:57:12;10.73;;;9.33;;
27161;SDS011;54464;50.558;9.704;2023-10-13T02:59:40;11.27;;;9.07;;
27161;SDS011;54464;50.558;9.704;2023-10-13T03:02:11;18.53;;;9.73;;
27161;SDS011;54464;50.558;9.704;2023-10-13T03:04:52;13.93;;;9.53;;
27161;SDS011;54464;50.558;9.704;2023-10-13T03:07:27;15.00;;;9.33;;
27161;SDS011;54464;50.558;9.704;2023-10-13T03:09:56;13.40;;;9.23;;
27161;SDS011;54464;50.558;9.704;2023-10-13T03:12:25;16.10;;;9.60;;
27161;SDS011;54464;50.558;9.704;2023-10-13T03:14:51;13.03;;;9.13;;
27161;SDS011;54464;50.558;9.704;2023-10-13T03:17:20;12.80;;;8.47;;
27161;SDS011;54464;50.558;9.704;2023-10-13T03:19:58;13.77;;;9.27;;
27161;SDS011;54464;50.558;9.704;2023-10-13T03:22:25;11.73;;;8.77;;
27161;SDS011;54464;50.558;9.704;2023-10-13T03:24:57;14.13;;;9.13;;
27161;SDS011;54464;50.558;9.704;2023-10-13T03:27:38;11.60;;;8.77;;
27161;SDS011;54464;50.558;9.704;2023-10-13T03:30:26;14.50;;;8.43;;
27161;SDS011;54464;50.558;9.704;2023-10-13T03:33:12;12.03;;;8.73;;
27161;SDS011;54464;50.558;9.704;2023-10-13T03:35:39;13.57;;;8.33;;
27161;SDS011;54464;50.558;9.704;2023-10-13T03:38:20;12.53;;;8.47;;
27161;SDS011;54464;50.558;9.704;2023-10-13T03:40:52;10.63;;;8.33;;
27161;SDS011;54464;50.558;9.704;2023-10-13T03:43:33;10.23;;;8.33;;
27161;SDS011;54464;50.558;9.704;2023-10-13T03:46:10;12.83;;;8.97;;
27161;SDS011;54464;50.558;9.704;2023-10-13T03:48:35;13.57;;;9.33;;
27161;SDS011;54464;50.558;9.704;2023-10-13T03:51:20;13.20;;;8.50;;
27161;SDS011;54464;50.558;9.704;2023-10-13T03:53:45;14.43;;;10.00;;
27161;SDS011;54464;50.558;9.704;2023-10-13T03:58:55;12.97;;;9.00;;
27161;SDS011;54464;50.558;9.704;2023-10-13T04:01:30;11.40;;;9.33;;
27161;SDS011;54464;50.558;9.704;2023-10-13T04:04:15;11.20;;;8.23;;
27161;SDS011;54464;50.558;9.704;2023-10-13T04:06:59;15.00;;;8.53;;
27161;SDS011;54464;50.558;9.704;2023-10-13T04:09:35;13.37;;;9.47;;
27161;SDS011;54464;50.558;9.704;2023-10-13T04:12:03;12.93;;;9.63;;
27161;SDS011;54464;50.558;9.704;2023-10-13T04:17:11;13.33;;;9.00;;
27161;SDS011;54464;50.558;9.704;2023-10-13T04:19:39;14.77;;;8.70;;
27161;SDS011;54464;50.558;9.704;2023-10-13T04:22:24;11.50;;;8.57;;
27161;SDS011;54464;50.558;9.704;2023-10-13T04:25:11;14.17;;;8.70;;
27161;SDS011;54464;50.558;9.704;2023-10-13T04:27:55;10.63;;;8.07;;
27161;SDS011;54464;50.558;9.704;2023-10-13T04:30:42;11.93;;;7.90;;
27161;SDS011;54464;50.558;9.704;2023-10-13T04:33:30;9.90;;;7.83;;
27161;SDS011;54464;50.558;9.704;2023-10-13T04:36:00;11.47;;;8.47;;
27161;SDS011;54464;50.558;9.704;2023-10-13T04:38:47;10.30;;;7.50;;
27161;SDS011;54464;50.558;9.704;2023-10-13T04:41:33;9.37;;;7.63;;
27161;SDS011;54464;50.558;9.704;2023-10-13T04:44:06;12.03;;;7.70;;
27161;SDS011;54464;50.558;9.704;2023-10-13T04:46:51;13.10;;;8.50;;
27161;SDS011;54464;50.558;9.704;2023-10-13T04:49:18;10.57;;;7.60;;
27161;SDS011;54464;50.558;9.704;2023-10-13T04:51:57;12.47;;;7.93;;
27161;SDS011;54464;50.558;9.704;2023-10-13T04:54:25;12.57;;;7.57;;
27161;SDS011;54464;50.558;9.704;2023-10-13T04:56:51;12.07;;;7.47;;
27161;SDS011;54464;50.558;9.704;2023-10-13T04:59:36;13.63;;;7.83;;
27161;SDS011;54464;50.558;9.704;2023-10-13T05:02:24;11.33;;;7.63;;
27161;SDS011;54464;50.558;9.704;2023-10-13T05:05:08;10.80;;;7.77;;
27161;SDS011;54464;50.558;9.704;2023-10-13T05:07:44;11.57;;;8.10;;
27161;SDS011;54464;50.558;9.704;2023-10-13T05:10:29;10.50;;;7.37;;
27161;SDS011;54464;50.558;9.704;2023-10-13T05:13:14;11.07;;;7.63;;
27161;SDS011;54464;50.558;9.704;2023-10-13T05:15:59;11.27;;;7.03;;
27161;SDS011;54464;50.558;9.704;2023-10-13T05:18:43;9.60;;;7.10;;
27161;SDS011;54464;50.558;9.704;2023-10-13T05:21:27;10.23;;;6.20;;
27161;SDS011;54464;50.558;9.704;2023-10-13T05:24:12;10.60;;;6.33;;
27161;SDS011;54464;50.558;9.704;2023-10-13T05:26:57;10.27;;;7.03;;
27161;SDS011;54464;50.558;9.704;2023-10-13T05:29:42;13.00;;;6.70;;
27161;SDS011;54464;50.558;9.704;2023-10-13T05:32:26;11.00;;;7.27;;
27161;SDS011;54464;50.558;9.704;2023-10-13T05:35:11;10.97;;;6.37;;
27161;SDS011;54464;50.558;9.704;2023-10-13T05:38:00;10.67;;;6.60;;
27161;SDS011;54464;50.558;9.704;2023-10-13T05:40:55;8.37;;;6.40;;
27161;SDS011;54464;50.558;9.704;2023-10-13T05:43:44;10.70;;;6.23;;
27161;SDS011;54464;50.558;9.704;2023-10-13T05:46:29;12.77;;;6.60;;
27161;SDS011;54464;50.558;9.704;2023-10-13T05:49:04;7.37;;;6.10;;
27161;SDS011;54464;50.558;9.704;2023-10-13T05:51:37;8.43;;;6.20;;
27161;SDS011;54464;50.558;9.704;2023-10-13T05:54:03;9.53;;;5.87;;
27161;SDS011;54464;50.558;9.704;2023-10-13T05:56:45;12.80;;;6.23;;
27161;SDS011;54464;50.558;9.704;2023-10-13T05:59:33;10.30;;;6.03;;
27161;SDS011;54464;50.558;9.704;2023-10-13T06:02:36;9.33;;;6.37;;
27161;SDS011;54464;50.558;9.704;2023-10-13T06:05:20;9.70;;;5.70;;
27161;SDS011;54464;50.558;9.704;2023-10-13T06:08:05;11.63;;;6.17;;
27161;SDS011;54464;50.558;9.704;2023-10-13T06:10:49;7.63;;;5.97;;
27161;SDS011;54464;50.558;9.704;2023-10-13T06:13:33;13.87;;;6.40;;
27161;SDS011;54464;50.558;9.704;2023-10-13T06:16:17;10.23;;;5.63;;
27161;SDS011;54464;50.558;9.704;2023-10-13T06:19:01;9.03;;;6.00;;
27161;SDS011;54464;50.558;9.704;2023-10-13T06:21:46;11.87;;;6.40;;
27161;SDS011;54464;50.558;9.704;2023-10-13T06:24:31;11.57;;;6.20;;
27161;SDS011;54464;50.558;9.704;2023-10-13T06:27:15;8.93;;;5.53;;
27161;SDS011;54464;50.558;9.704;2023-10-13T06:30:00;9.73;;;5.50;;
27161;SDS011;54464;50.558;9.704;2023-10-13T06:32:26;9.13;;;6.60;;
27161;SDS011;54464;50.558;9.704;2023-10-13T06:34:52;8.23;;;5.37;;
27161;SDS011;54464;50.558;9.704;2023-10-13T06:37:23;14.17;;;6.40;;
27161;SDS011;54464;50.558;9.704;2023-10-13T06:39:59;11.27;;;5.90;;
27161;SDS011;54464;50.558;9.704;2023-10-13T06:42:39;9.70;;;5.60;;
27161;SDS011;54464;50.558;9.704;2023-10-13T06:45:08;9.47;;;5.90;;
27161;SDS011;54464;50.558;9.704;2023-10-13T06:47:35;9.43;;;5.77;;
27161;SDS011;54464;50.558;9.704;2023-10-13T06:50:08;12.43;;;6.23;;
27161;SDS011;54464;50.558;9.704;2023-10-13T06:52:41;8.23;;;5.53;;
27161;SDS011;54464;50.558;9.704;2023-10-13T06:55:07;9.80;;;5.93;;
27161;SDS011;54464;50.558;9.704;2023-10-13T06:57:35;9.60;;;5.67;;
27161;SDS011;54464;50.558;9.704;2023-10-13T07:00:10;7.33;;;5.83;;
27161;SDS011;54464;50.558;9.704;2023-10-13T07:02:58;9.40;;;5.97;;
27161;SDS011;54464;50.558;9.704;2023-10-13T07:05:33;10.20;;;6.17;;
27161;SDS011;54464;50.558;9.704;2023-10-13T07:08:08;10.40;;;6.47;;
27161;SDS011;54464;50.558;9.704;2023-10-13T07:10:47;12.77;;;5.93;;
27161;SDS011;54464;50.558;9.704;2023-10-13T07:13:26;9.67;;;5.87;;
27161;SDS011;54464;50.558;9.704;2023-10-13T07:15:53;10.17;;;6.13;;
27161;SDS011;54464;50.558;9.704;2023-10-13T07:18:25;14.53;;;6.13;;
27161;SDS011;54464;50.558;9.704;2023-10-13T07:20:50;11.63;;;5.87;;
27161;SDS011;54464;50.558;9.704;2023-10-13T07:23:22;11.13;;;6.17;;
27161;SDS011;54464;50.558;9.704;2023-10-13T07:25:55;8.87;;;5.90;;
27161;SDS011;54464;50.558;9.704;2023-10-13T07:28:30;9.67;;;6.10;;
27161;SDS011;54464;50.558;9.704;2023-10-13T07:31:01;9.80;;;5.50;;
27161;SDS011;54464;50.558;9.704;2023-10-13T07:33:27;9.70;;;5.63;;
27161;SDS011;54464;50.558;9.704;2023-10-13T07:36:03;11.80;;;6.33;;
27161;SDS011;54464;50.558;9.704;2023-10-13T07:38:37;8.47;;;5.87;;
27161;SDS011;54464;50.558;9.704;2023-10-13T07:41:07;11.33;;;6.57;;
27161;SDS011;54464;50.558;9.704;2023-10-13T07:43:34;11.93;;;6.13;;
27161;SDS011;54464;50.558;9.704;2023-10-13T07:46:02;11.73;;;6.07;;
27161;SDS011;54464;50.558;9.704;2023-10-13T07:48:35;9.60;;;6.03;;
27161;SDS011;54464;50.558;9.704;2023-10-13T07:51:02;9.40;;;5.63;;
27161;SDS011;54464;50.558;9.704;2023-10-13T07:53:30;9.27;;;6.10;;
27161;SDS011;54464;50.558;9.704;2023-10-13T07:56:05;11.03;;;5.77;;
27161;SDS011;54464;50.558;9.704;2023-10-13T07:58:33;9.93;;;5.50;;
27161;SDS011;54464;50.558;9.704;2023-10-13T08:01:12;7.83;;;5.60;;
27161;SDS011;54464;50.558;9.704;2023-10-13T08:03:42;10.83;;;5.27;;
27161;SDS011;54464;50.558;9.704;2023-10-13T08:06:11;9.33;;;5.47;;
27161;SDS011;54464;50.558;9.704;2023-10-13T08:08:42;7.77;;;5.00;;
27161;SDS011;54464;50.558;9.704;2023-10-13T08:13:56;11.17;;;4.73;;
27161;SDS011;54464;50.558;9.704;2023-10-13T08:16:41;8.97;;;5.20;;
27161;SDS011;54464;50.558;9.704;2023-10-13T08:19:16;9.20;;;5.47;;
27161;SDS011;54464;50.558;9.704;2023-10-13T08:21:44;8.40;;;4.60;;
27161;SDS011;54464;50.558;9.704;2023-10-13T08:24:22;8.40;;;4.93;;
27161;SDS011;54464;50.558;9.704;2023-10-13T08:27:14;7.33;;;4.43;;
27161;SDS011;54464;50.558;9.704;2023-10-13T08:30:02;10.57;;;4.83;;
27161;SDS011;54464;50.558;9.704;2023-10-13T08:33:06;8.00;;;4.30;;
27161;SDS011;54464;50.558;9.704;2023-10-13T08:35:41;10.37;;;5.07;;
27161;SDS011;54464;50.558;9.704;2023-10-13T08:38:19;9.97;;;4.73;;
27161;SDS011;54464;50.558;9.704;2023-10-13T08:40:53;8.30;;;4.10;;
27161;SDS011;54464;50.558;9.704;2023-10-13T08:43:42;8.23;;;4.80;;
27161;SDS011;54464;50.558;9.704;2023-10-13T08:46:15;11.37;;;5.40;;
27161;SDS011;54464;50.558;9.704;2023-10-13T08:48:55;7.23;;;4.43;;
27161;SDS011;54464;50.558;9.704;2023-10-13T08:51:39;8.60;;;4.83;;
27161;SDS011;54464;50.558;9.704;2023-10-13T08:54:10;8.37;;;4.20;;
27161;SDS011;54464;50.558;9.704;2023-10-13T08:56:44;6.17;;;4.13;;
27161;SDS011;54464;50.558;9.704;2023-10-13T08:59:21;9.60;;;4.40;;
27161;SDS011;54464;50.558;9.704;2023-10-13T09:01:48;10.13;;;4.53;;
27161;SDS011;54464;50.558;9.704;2023-10-13T09:04:24;8.53;;;4.20;;
27161;SDS011;54464;50.558;9.704;2023-10-13T09:07:00;9.30;;;4.37;;
27161;SDS011;54464;50.558;9.704;2023-10-13T09:12:20;8.13;;;4.00;;
27161;SDS011;54464;50.558;9.704;2023-10-13T09:15:08;7.63;;;4.20;;
27161;SDS011;54464;50.558;9.704;2023-10-13T09:17:41;9.47;;;4.70;;
27161;SDS011;54464;50.558;9.704;2023-10-13T09:20:17;8.53;;;4.20;;
27161;SDS011;54464;50.558;9.704;2023-10-13T09:23:11;5.90;;;4.40;;
27161;SDS011;54464;50.558;9.704;2023-10-13T09:25:49;9.63;;;4.10;;
27161;SDS011;54464;50.558;9.704;2023-10-13T09:28:34;8.43;;;3.90;;
27161;SDS011;54464;50.558;9.704;2023-10-13T09:31:02;9.73;;;4.03;;
27161;SDS011;54464;50.558;9.704;2023-10-13T09:33:32;8.63;;;4.00;;
27161;SDS011;54464;50.558;9.704;2023-10-13T09:36:01;5.40;;;3.90;;
27161;SDS011;54464;50.558;9.704;2023-10-13T09:38:37;7.57;;;4.30;;
27161;SDS011;54464;50.558;9.704;2023-10-13T09:41:06;9.73;;;4.33;;
27161;SDS011;54464;50.558;9.704;2023-10-13T09:43:45;13.33;;;4.60;;
27161;SDS011;54464;50.558;9.704;2023-10-13T09:46:11;7.37;;;3.93;;
27161;SDS011;54464;50.558;9.704;2023-10-13T09:48:47;8.83;;;4.37;;
27161;SDS011;54464;50.558;9.704;2023-10-13T09:51:29;9.63;;;4.10;;
27161;SDS011;54464;50.558;9.704;2023-10-13T09:56:38;9.43;;;4.37;;
27161;SDS011;54464;50.558;9.704;2023-10-13T09:59:29;8.77;;;5.20;;
27161;SDS011;54464;50.558;9.704;2023-10-13T10:02:03;9.87;;;4.47;;
27161;SDS011;54464;50.558;9.704;2023-10-13T10:04:34;7.50;;;4.50;;
27161;SDS011;54464;50.558;9.704;2023-10-13T10:07:23;7.87;;;4.73;;
27161;SDS011;54464;50.558;9.704;2023-10-13T10:09:56;6.17;;;4.33;;
27161;SDS011;54464;50.558;9.704;2023-10-13T10:12:38;10.33;;;4.20;;
27161;SDS011;54464;50.558;9.704;2023-10-13T10:17:59;10.20;;;4.37;;
27161;SDS011;54464;50.558;9.704;2023-10-13T10:20:29;6.57;;;4.33;;
27161;SDS011;54464;50.558;9.704;2023-10-13T10:23:06;7.30;;;4.30;;
27161;SDS011;54464;50.558;9.704;2023-10-13T10:25:46;10.13;;;4.70;;
27161;SDS011;54464;50.558;9.704;2023-10-13T10:28:13;11.20;;;4.90;;
27161;SDS011;54464;50.558;9.704;2023-10-13T10:30:40;6.67;;;4.57;;
27161;SDS011;54464;50.558;9.704;2023-10-13T10:33:09;8.57;;;4.43;;
27161;SDS011;54464;50.558;9.704;2023-10-13T10:35:42;6.57;;;4.60;;
27161;SDS011;54464;50.558;9.704;2023-10-13T10:38:09;9.83;;;4.80;;
27161;SDS011;54464;50.558;9.704;2023-10-13T10:40:54;6.97;;;4.13;;
27161;SDS011;54464;50.558;9.704;2023-10-13T10:46:08;7.47;;;4.43;;
27161;SDS011;54464;50.558;9.704;2023-10-13T10:48:36;8.67;;;5.00;;
27161;SDS011;54464;50.558;9.704;2023-10-13T10:51:03;9.63;;;5.07;;
27161;SDS011;54464;50.558;9.704;2023-10-13T10:53:39;7.73;;;5.00;;
27161;SDS011;54464;50.558;9.704;2023-10-13T10:56:11;7.63;;;4.63;;
27161;SDS011;54464;50.558;9.704;2023-10-13T10:58:58;8.23;;;4.67;;
27161;SDS011;54464;50.558;9.704;2023-10-13T11:01:28;9.47;;;4.87;;
27161;SDS011;54464;50.558;9.704;2023-10-13T11:06:36;8.47;;;4.83;;
27161;SDS011;54464;50.558;9.704;2023-10-13T11:09:08;10.27;;;4.60;;
27161;SDS011;54464;50.558;9.704;2023-10-13T11:14:48;8.03;;;4.83;;
27161;SDS011;54464;50.558;9.704;2023-10-13T11:17:26;8.40;;;4.83;;
27161;SDS011;54464;50.558;9.704;2023-10-13T11:20:10;10.73;;;5.30;;
27161;SDS011;54464;50.558;9.704;2023-10-13T11:22:45;8.83;;;5.20;;
27161;SDS011;54464;50.558;9.704;2023-10-13T11:25:19;8.53;;;4.73;;
27161;SDS011;54464;50.558;9.704;2023-10-13T11:27:47;7.57;;;4.67;;
27161;SDS011;54464;50.558;9.704;2023-10-13T11:30:13;8.07;;;4.57;;
27161;SDS011;54464;50.558;9.704;2023-10-13T11:32:44;6.67;;;4.50;;
27161;SDS011;54464;50.558;9.704;2023-10-13T11:35:11;6.90;;;4.87;;
27161;SDS011;54464;50.558;9.704;2023-10-13T11:37:49;6.47;;;5.27;;
27161;SDS011;54464;50.558;9.704;2023-10-13T11:40:27;7.43;;;4.80;;
27161;SDS011;54464;50.558;9.704;2023-10-13T11:43:24;7.20;;;5.07;;
27161;SDS011;54464;50.558;9.704;2023-10-13T11:45:51;9.17;;;4.87;;
27161;SDS011;54464;50.558;9.704;2023-10-13T11:48:44;8.77;;;4.80;;
27161;SDS011;54464;50.558;9.704;2023-10-13T11:51:12;7.83;;;5.30;;
27161;SDS011;54464;50.558;9.704;2023-10-13T11:53:45;7.80;;;4.73;;
27161;SDS011;54464;50.558;9.704;2023-10-13T11:56:17;10.37;;;5.57;;
27161;SDS011;54464;50.558;9.704;2023-10-13T11:58:45;7.97;;;4.70;;
27161;SDS011;54464;50.558;9.704;2023-10-13T12:01:12;9.13;;;5.43;;
27161;SDS011;54464;50.558;9.704;2023-10-13T12:03:47;7.20;;;4.40;;
27161;SDS011;54464;50.558;9.704;2023-10-13T12:06:33;6.80;;;4.30;;
27161;SDS011;54464;50.558;9.704;2023-10-13T12:11:46;7.70;;;4.70;;
27161;SDS011;54464;50.558;9.704;2023-10-13T12:14:15;6.93;;;4.50;;
27161;SDS011;54464;50.558;9.704;2023-10-13T12:16:48;9.73;;;4.63;;
27161;SDS011;54464;50.558;9.704;2023-10-13T12:19:16;8.93;;;4.77;;
27161;SDS011;54464;50.558;9.704;2023-10-13T12:21:45;8.77;;;5.33;;
27161;SDS011;54464;50.558;9.704;2023-10-13T12:24:13;7.97;;;5.37;;
27161;SDS011;54464;50.558;9.704;2023-10-13T12:27:05;6.90;;;5.00;;
27161;SDS011;54464;50.558;9.704;2023-10-13T12:29:53;7.57;;;4.70;;
27161;SDS011;54464;50.558;9.704;2023-10-13T12:32:21;8.70;;;5.23;;
27161;SDS011;54464;50.558;9.704;2023-10-13T12:34:50;8.40;;;5.10;;
27161;SDS011;54464;50.558;9.704;2023-10-13T12:37:29;7.07;;;4.90;;
27161;SDS011;54464;50.558;9.704;2023-10-13T12:40:08;6.47;;;5.10;;
27161;SDS011;54464;50.558;9.704;2023-10-13T12:42:57;9.13;;;4.73;;
27161;SDS011;54464;50.558;9.704;2023-10-13T12:45:48;7.33;;;4.60;;
27161;SDS011;54464;50.558;9.704;2023-10-13T12:48:34;6.13;;;4.53;;
27161;SDS011;54464;50.558;9.704;2023-10-13T12:51:19;8.27;;;5.20;;
27161;SDS011;54464;50.558;9.704;2023-10-13T12:53:49;9.90;;;5.00;;
27161;SDS011;54464;50.558;9.704;2023-10-13T12:56:15;8.83;;;5.20;;
27161;SDS011;54464;50.558;9.704;2023-10-13T12:58:42;10.33;;;5.10;;
27161;SDS011;54464;50.558;9.704;2023-10-13T13:01:17;7.20;;;4.50;;
27161;SDS011;54464;50.558;9.704;2023-10-13T13:03:45;7.07;;;4.73;;
27161;SDS011;54464;50.558;9.704;2023-10-13T13:06:15;8.67;;;4.90;;
27161;SDS011;54464;50.558;9.704;2023-10-13T13:08:51;6.57;;;4.70;;
27161;SDS011;54464;50.558;9.704;2023-10-13T13:11:20;9.13;;;5.27;;
27161;SDS011;54464;50.558;9.704;2023-10-13T13:13:46;6.67;;;5.13;;
27161;SDS011;54464;50.558;9.704;2023-10-13T13:16:15;9.93;;;4.60;;
27161;SDS011;54464;50.558;9.704;2023-10-13T13:18:44;6.33;;;4.47;;
27161;SDS011;54464;50.558;9.704;2023-10-13T13:21:09;7.50;;;4.80;;
27161;SDS011;54464;50.558;9.704;2023-10-13T13:23:45;6.83;;;4.67;;
27161;SDS011;54464;50.558;9.704;2023-10-13T13:26:11;8.03;;;4.40;;
27161;SDS011;54464;50.558;9.704;2023-10-13T13:28:43;7.27;;;4.70;;
27161;SDS011;54464;50.558;9.704;2023-10-13T13:31:10;6.27;;;4.60;;
27161;SDS011;54464;50.558;9.704;2023-10-13T13:33:37;7.03;;;4.40;;
27161;SDS011;54464;50.558;9.704;2023-10-13T13:36:07;6.97;;;4.50;;
27161;SDS011;54464;50.558;9.704;2023-10-13T13:38:32;7.77;;;5.00;;
27161;SDS011;54464;50.558;9.704;2023-10-13T13:40:59;7.27;;;4.80;;
27161;SDS011;54464;50.558;9.704;2023-10-13T13:43:27;9.80;;;4.73;;
27161;SDS011;54464;50.558;9.704;2023-10-13T13:46:16;9.83;;;4.77;;
27161;SDS011;54464;50.558;9.704;2023-10-13T13:48:42;7.00;;;4.70;;
27161;SDS011;54464;50.558;9.704;2023-10-13T13:51:08;6.00;;;4.30;;
27161;SDS011;54464;50.558;9.704;2023-10-13T13:53:39;6.80;;;4.67;;
27161;SDS011;54464;50.558;9.704;2023-10-13T13:56:10;9.80;;;4.40;;
27161;SDS011;54464;50.558;9.704;2023-10-13T13:58:36;9.73;;;6.20;;
27161;SDS011;54464;50.558;9.704;2023-10-13T14:01:03;9.83;;;4.60;;
27161;SDS011;54464;50.558;9.704;2023-10-13T14:03:40;7.73;;;3.93;;
27161;SDS011;54464;50.558;9.704;2023-10-13T14:06:12;7.70;;;4.53;;
27161;SDS011;54464;50.558;9.704;2023-10-13T14:08:44;7.40;;;4.60;;
27161;SDS011;54464;50.558;9.704;2023-10-13T14:11:13;6.97;;;4.50;;
27161;SDS011;54464;50.558;9.704;2023-10-13T14:14:12;7.63;;;4.90;;
27161;SDS011;54464;50.558;9.704;2023-10-13T14:16:41;6.67;;;4.80;;
27161;SDS011;54464;50.558;9.704;2023-10-13T14:19:10;6.93;;;4.83;;
27161;SDS011;54464;50.558;9.704;2023-10-13T14:21:37;6.23;;;4.73;;
27161;SDS011;54464;50.558;9.704;2023-10-13T14:24:03;7.27;;;3.97;;
27161;SDS011;54464;50.558;9.704;2023-10-13T14:26:37;6.83;;;4.30;;
27161;SDS011;54464;50.558;9.704;2023-10-13T14:29:03;7.80;;;4.33;;
27161;SDS011;54464;50.558;9.704;2023-10-13T14:31:33;7.63;;;4.20;;
27161;SDS011;54464;50.558;9.704;2023-10-13T14:34:01;5.23;;;4.27;;
27161;SDS011;54464;50.558;9.704;2023-10-13T14:36:27;6.83;;;4.50;;
27161;SDS011;54464;50.558;9.704;2023-10-13T14:38:59;4.73;;;4.20;;
27161;SDS011;54464;50.558;9.704;2023-10-13T14:41:26;7.53;;;4.70;;
27161;SDS011;54464;50.558;9.704;2023-10-13T14:43:51;5.57;;;4.03;;
27161;SDS011;54464;50.558;9.704;2023-10-13T14:46:17;8.00;;;4.33;;
27161;SDS011;54464;50.558;9.704;2023-10-13T14:48:48;9.13;;;4.67;;
27161;SDS011;54464;50.558;9.704;2023-10-13T14:51:16;5.60;;;4.03;;
27161;SDS011;54464;50.558;9.704;2023-10-13T14:53:43;7.27;;;4.10;;
27161;SDS011;54464;50.558;9.704;2023-10-13T14:56:09;4.80;;;4.20;;
27161;SDS011;54464;50.558;9.704;2023-10-13T14:58:39;8.77;;;4.07;;
27161;SDS011;54464;50.558;9.704;2023-10-13T15:01:14;6.50;;;3.63;;
27161;SDS011;54464;50.558;9.704;2023-10-13T15:03:41;7.57;;;4.05;;
27161;SDS011;54464;50.558;9.704;2023-10-13T15:06:07;6.47;;;4.10;;
27161;SDS011;54464;50.558;9.704;2023-10-13T15:08:42;6.82;;;4.32;;
27161;SDS011;54464;50.558;9.704;2023-10-13T15:11:10;7.97;;;4.05;;
27161;SDS011;54464;50.558;9.704;2023-10-13T15:13:38;5.70;;;4.07;;
27161;SDS011;54464;50.558;9.704;2023-10-13T15:16:12;8.67;;;3.80;;
27161;SDS011;54464;50.558;9.704;2023-10-13T15:18:46;8.52;;;4.15;;
27161;SDS011;54464;50.558;9.704;2023-10-13T15:21:19;6.35;;;4.05;;
27161;SDS011;54464;50.558;9.704;2023-10-13T15:23:46;6.83;;;4.07;;
27161;SDS011;54464;50.558;9.704;2023-10-13T15:26:12;6.85;;;4.00;;
27161;SDS011;54464;50.558;9.704;2023-10-13T15:28:39;6.75;;;4.07;;
27161;SDS011;54464;50.558;9.704;2023-10-13T15:31:21;11.17;;;4.00;;
27161;SDS011;54464;50.558;9.704;2023-10-13T15:33:54;6.07;;;4.30;;
27161;SDS011;54464;50.558;9.704;2023-10-13T15:38:49;5.87;;;3.97;;
27161;SDS011;54464;50.558;9.704;2023-10-13T15:41:25;4.53;;;3.83;;
27161;SDS011;54464;50.558;9.704;2023-10-13T15:43:51;5.53;;;4.10;;
27161;SDS011;54464;50.558;9.704;2023-10-13T15:46:18;5.07;;;3.70;;
27161;SDS011;54464;50.558;9.704;2023-10-13T15:48:47;6.73;;;3.50;;